»·PEaware :: N710DS KSEA-KACV

N710DS :: KSEA-KACV

FLIGHT INFORMATION

Flight Status: Arrived
Operator: Privately registered:
United States
More flights under this callsign
Pilot: John H. (10732)
Aircraft: Unknown
(B60T)
More flights by this aircraft type
Origin: KSEA Seattle-Tacoma Intl
United States
Destination: KACV Arcata
United States
More flights between these airports :: More routes between these airports
Route: +HAROB6 HQM WAVLU T257 OLJEK ACV
File this flight plan on PilotEdge
Remarks:
Altitude:
(Current/Filed)
24,000ft
Speed:
(Current/Filed)
300kts
Departed: 11-Jun-19 05:36 PM
Arrived: 11-Jun-19 07:18 PM
Distance/Time
Traveled:
396nm/1:42
Distance/Time
To Go:
Arrived

Flight Plot

Page will automatically refresh every two minutes.

Flight plan parsing failed; only flown route is shown


Map Options




Map Legend


Flown Route
Filed Route
Departure Airport
Arrival Airport
Navaid (VOR, NDB)
Fix

Horizontal Profiles

Position Reports

Time Latitude Longitude Heading Altitude Ground
Speed
11-Jun-19 17:23 47.438937 -122.316776 321 436ft 0kts
11-Jun-19 17:24 47.438939 -122.316778 321 436ft 0kts
11-Jun-19 17:25 47.438941 -122.316780 321 436ft 0kts
11-Jun-19 17:26 47.438942 -122.316782 321 436ft 0kts
11-Jun-19 17:27 47.438944 -122.316784 321 436ft 0kts
11-Jun-19 17:28 47.438945 -122.316785 321 436ft 0kts
11-Jun-19 17:29 47.438945 -122.316785 321 436ft 0kts
11-Jun-19 17:30 47.438946 -122.316787 321 436ft 0kts
11-Jun-19 17:31 47.438928 -122.316598 156 436ft 5kts
11-Jun-19 17:32 47.438554 -122.313545 179 436ft 18kts
11-Jun-19 17:33 47.437949 -122.312188 94 436ft 0kts
11-Jun-19 17:34 47.438465 -122.311237 358 436ft 0kts
11-Jun-19 17:35 47.475710 -122.311659 358 2403ft 167kts
11-Jun-19 17:36 47.523417 -122.311016 2 6416ft 176kts
11-Jun-19 17:37 47.570552 -122.325880 323 10433ft 183kts
11-Jun-19 17:38 47.608627 -122.374830 290 14445ft 185kts
11-Jun-19 17:39 47.615285 -122.469875 256 15004ft 266kts
11-Jun-19 17:40 47.566868 -122.549992 226 15000ft 259kts
11-Jun-19 17:41 47.516317 -122.626438 227 14994ft 255kts
11-Jun-19 17:42 47.467198 -122.701575 226 14994ft 253kts
11-Jun-19 17:43 47.418079 -122.776309 226 15143ft 248kts
11-Jun-19 17:44 47.374597 -122.842247 227 18580ft 209kts
11-Jun-19 17:45 47.335078 -122.902060 227 22562ft 198kts
11-Jun-19 17:46 47.287472 -122.973970 226 23176ft 267kts
11-Jun-19 17:47 47.238526 -123.057757 248 23964ft 280kts
11-Jun-19 17:48 47.210106 -123.167665 248 23976ft 290kts
11-Jun-19 17:49 47.180746 -123.278534 248 23972ft 292kts
11-Jun-19 17:50 47.151115 -123.390546 248 23967ft 294kts
11-Jun-19 17:51 47.121354 -123.502584 248 23965ft 294kts
11-Jun-19 17:52 47.091529 -123.614337 248 23963ft 294kts
11-Jun-19 17:53 47.061519 -123.726247 247 23961ft 295kts
11-Jun-19 17:54 47.031383 -123.838101 247 23957ft 295kts
11-Jun-19 17:55 47.001083 -123.950027 247 23953ft 295kts
11-Jun-19 17:56 46.970635 -124.061887 246 23953ft 295kts
11-Jun-19 17:57 46.908809 -124.130574 185 23948ft 292kts
11-Jun-19 17:58 46.828847 -124.110235 179 23944ft 293kts
11-Jun-19 17:59 46.749536 -124.128639 189 24520ft 278kts
11-Jun-19 18:00 46.672179 -124.148153 188 24941ft 287kts
11-Jun-19 18:01 46.592016 -124.166110 184 24939ft 294kts
11-Jun-19 18:02 46.516833 -124.170440 181 24934ft 297kts
11-Jun-19 18:03 46.433787 -124.174544 181 24932ft 298kts
11-Jun-19 18:04 46.351041 -124.178672 181 24919ft 298kts
11-Jun-19 18:05 46.268008 -124.172747 174 24918ft 297kts
11-Jun-19 18:06 46.185372 -124.163261 174 24906ft 298kts
11-Jun-19 18:07 46.102879 -124.153870 174 24907ft 297kts
11-Jun-19 18:08 46.020242 -124.144503 174 24902ft 297kts
11-Jun-19 18:09 45.937770 -124.135183 174 24903ft 297kts
11-Jun-19 18:10 45.855178 -124.125878 174 24899ft 297kts
11-Jun-19 18:11 45.772608 -124.116604 174 24899ft 297kts
11-Jun-19 18:13 45.690003 -124.107353 174 24892ft 298kts
11-Jun-19 18:14 45.607371 -124.098126 174 24889ft 298kts
11-Jun-19 18:15 45.524365 -124.089018 174 24890ft 298kts
11-Jun-19 18:16 45.441631 -124.080080 174 24881ft 299kts
11-Jun-19 18:17 45.358667 -124.071141 174 24882ft 299kts
11-Jun-19 18:18 45.275484 -124.062206 174 24877ft 299kts
11-Jun-19 18:19 45.192592 -124.053329 174 24878ft 299kts
11-Jun-19 18:20 45.109399 -124.044444 174 24876ft 299kts
11-Jun-19 18:21 45.034024 -124.036417 174 24877ft 299kts
11-Jun-19 18:22 44.951042 -124.027604 174 24871ft 299kts
11-Jun-19 18:23 44.867572 -124.026597 183 24872ft 299kts
11-Jun-19 18:24 44.784445 -124.036434 183 24866ft 299kts
11-Jun-19 18:25 44.701320 -124.045935 183 24866ft 299kts
11-Jun-19 18:26 44.618283 -124.055180 183 24863ft 299kts
11-Jun-19 18:27 44.535394 -124.063836 182 24861ft 299kts
11-Jun-19 18:28 44.452358 -124.071597 182 24859ft 298kts
11-Jun-19 18:28 44.383387 -124.078091 182 24859ft 298kts
11-Jun-19 18:30 44.286793 -124.089672 189 24858ft 299kts
11-Jun-19 18:31 44.206834 -124.123247 195 24855ft 300kts
11-Jun-19 18:31 44.140372 -124.152608 195 24855ft 300kts
11-Jun-19 18:32 44.060834 -124.187143 195 24849ft 300kts
11-Jun-19 18:34 43.967959 -124.227213 195 24852ft 299kts
11-Jun-19 18:34 43.901664 -124.255716 195 24848ft 299kts
11-Jun-19 18:35 43.822171 -124.289806 195 24848ft 298kts
11-Jun-19 18:36 43.742892 -124.323707 195 24846ft 298kts
11-Jun-19 18:37 43.663425 -124.357596 195 24846ft 298kts
11-Jun-19 18:38 43.583767 -124.391471 195 24851ft 298kts
11-Jun-19 18:39 43.504660 -124.425019 194 24856ft 298kts
11-Jun-19 18:40 43.433116 -124.455280 194 24861ft 297kts
11-Jun-19 18:41 43.353945 -124.488679 194 24873ft 296kts
11-Jun-19 18:42 43.273531 -124.504233 176 24877ft 293kts
11-Jun-19 18:43 43.192257 -124.499501 176 24894ft 292kts
11-Jun-19 18:44 43.110767 -124.495203 176 24899ft 292kts
11-Jun-19 18:45 43.029407 -124.491011 176 24910ft 292kts
11-Jun-19 18:46 42.948234 -124.486858 176 24915ft 292kts
11-Jun-19 18:47 42.867543 -124.482742 176 24916ft 291kts
11-Jun-19 18:48 42.786286 -124.478609 176 24917ft 291kts
11-Jun-19 18:49 42.704862 -124.474479 176 24915ft 291kts
11-Jun-19 18:50 42.623620 -124.470368 176 24910ft 291kts
11-Jun-19 18:51 42.542492 -124.466274 176 24911ft 291kts
11-Jun-19 18:52 42.461428 -124.462193 176 24896ft 291kts
11-Jun-19 18:53 42.380051 -124.458096 176 24534ft 301kts
11-Jun-19 18:54 42.303455 -124.454385 176 23112ft 253kts
11-Jun-19 18:55 42.234377 -124.450980 177 21688ft 245kts
11-Jun-19 18:56 42.165256 -124.447505 178 19920ft 251kts
11-Jun-19 18:57 42.095081 -124.443974 179 18123ft 252kts
11-Jun-19 18:58 42.025767 -124.440523 180 16322ft 247kts
11-Jun-19 18:59 41.957197 -124.437136 180 14521ft 246kts
11-Jun-19 19:00 41.896089 -124.424237 163 12913ft 253kts
11-Jun-19 19:01 41.829367 -124.392369 162 11110ft 254kts
11-Jun-19 19:02 41.763080 -124.361217 161 9311ft 252kts
11-Jun-19 19:03 41.698582 -124.331098 161 7512ft 242kts
11-Jun-19 19:04 41.635721 -124.301785 161 6056ft 230kts
11-Jun-19 19:05 41.574873 -124.275155 164 6001ft 236kts
11-Jun-19 19:06 41.511350 -124.251679 165 5996ft 237kts
11-Jun-19 19:07 41.447550 -124.230213 169 6000ft 236kts
11-Jun-19 19:08 41.382461 -124.213853 169 5522ft 238kts
11-Jun-19 19:09 41.317895 -124.196995 169 5501ft 234kts
11-Jun-19 19:10 41.253896 -124.180220 169 4627ft 228kts
11-Jun-19 19:11 41.189637 -124.163359 169 4500ft 244kts
11-Jun-19 19:12 41.125985 -124.146711 169 3336ft 218kts
11-Jun-19 19:13 41.078786 -124.130287 149 2113ft 122kts
11-Jun-19 19:14 41.049642 -124.107348 156 2201ft 125kts
11-Jun-19 19:15 41.019073 -124.123551 183 633ft 106kts
11-Jun-19 19:16 40.990555 -124.116388 159 427ft 102kts
11-Jun-19 19:17 40.978166 -124.107439 23 221ft 7kts
11-Jun-19 19:18 40.975774 -124.108560 173 221ft 19kts

Navigation Log

Ident Type
Flight plan parsing failed, navigation log unavailable